createdAt,value
2023-01-26T00:00:11.527Z,18.20
2023-01-26T00:01:11.441Z,20.70
2023-01-26T00:02:11.620Z,17.10
2023-01-26T00:03:11.787Z,19.50
2023-01-26T00:04:12.024Z,18.40
2023-01-26T00:05:12.135Z,22.00
2023-01-26T00:06:12.309Z,17.00
2023-01-26T00:07:12.495Z,18.90
2023-01-26T00:08:12.679Z,19.40
2023-01-26T00:09:12.835Z,21.50
2023-01-26T00:10:13.239Z,17.00
2023-01-26T00:11:13.185Z,23.30
2023-01-26T00:12:13.389Z,18.30
2023-01-26T00:13:13.524Z,19.60
2023-01-26T00:14:13.705Z,17.80
2023-01-26T00:15:13.876Z,22.60
2023-01-26T00:16:14.109Z,17.90
2023-01-26T00:17:14.305Z,19.40
2023-01-26T00:18:14.389Z,19.70
2023-01-26T00:19:14.611Z,18.70
2023-01-26T00:20:14.755Z,18.90
2023-01-26T00:21:14.908Z,21.60
2023-01-26T00:22:15.092Z,22.40
2023-01-26T00:23:15.254Z,20.70
2023-01-26T00:24:15.473Z,20.20
2023-01-26T00:25:15.597Z,23.40
2023-01-26T00:26:15.759Z,22.90
2023-01-26T00:27:15.953Z,23.00
2023-01-26T00:28:16.121Z,20.70
2023-01-26T00:29:16.301Z,20.40
2023-01-26T00:30:16.478Z,26.00
2023-01-26T00:31:16.673Z,24.60
2023-01-26T00:32:16.839Z,27.00
2023-01-26T00:33:16.982Z,23.70
2023-01-26T00:34:17.172Z,29.10
2023-01-26T00:35:17.364Z,26.50
2023-01-26T00:36:17.546Z,27.40
2023-01-26T00:37:17.736Z,28.80
2023-01-26T00:38:17.911Z,25.70
2023-01-26T00:39:18.156Z,30.00
2023-01-26T00:40:18.328Z,30.00
2023-01-26T00:41:18.453Z,28.40
2023-01-26T00:42:18.654Z,27.10
2023-01-26T00:43:18.809Z,27.20
2023-01-26T00:44:18.992Z,32.60
2023-01-26T00:45:19.180Z,28.80
2023-01-26T00:46:19.368Z,28.90
2023-01-26T00:47:19.601Z,27.60
2023-01-26T00:48:19.711Z,25.50
2023-01-26T00:49:19.892Z,27.10
2023-01-26T00:50:20.139Z,22.70
2023-01-26T00:51:20.240Z,27.00
2023-01-26T00:52:20.462Z,29.80
2023-01-26T00:53:20.651Z,26.40
2023-01-26T00:54:20.790Z,30.70
2023-01-26T00:55:20.991Z,25.40
2023-01-26T00:56:21.168Z,26.10
2023-01-26T00:57:21.310Z,26.60
2023-01-26T00:58:21.498Z,25.20
2023-01-26T00:59:21.694Z,26.60
2023-01-26T01:00:21.900Z,28.80
2023-01-26T01:01:22.038Z,28.40
2023-01-26T01:02:22.239Z,28.90
2023-01-26T01:03:22.422Z,27.80
2023-01-26T01:04:22.560Z,30.10
2023-01-26T01:05:22.742Z,31.60
2023-01-26T01:06:22.941Z,26.70
2023-01-26T01:07:23.107Z,29.70
2023-01-26T01:08:23.260Z,30.90
2023-01-26T01:09:23.439Z,30.60
2023-01-26T01:10:23.630Z,28.30
2023-01-26T01:11:23.819Z,34.00
2023-01-26T01:12:24.006Z,33.90
2023-01-26T01:13:24.168Z,26.60
2023-01-26T01:14:24.317Z,29.90
2023-01-26T01:15:24.546Z,31.70
2023-01-26T01:16:24.741Z,31.00
2023-01-26T01:17:24.858Z,29.20
2023-01-26T01:18:25.007Z,31.70
2023-01-26T01:19:25.244Z,30.10
2023-01-26T01:20:25.357Z,29.50
2023-01-26T01:21:25.541Z,32.10
2023-01-26T01:22:25.791Z,28.40
2023-01-26T01:23:25.887Z,30.50
2023-01-26T01:24:26.094Z,29.60
2023-01-26T01:25:26.236Z,30.10
2023-01-26T01:26:26.443Z,26.20
2023-01-26T01:27:26.604Z,29.10
2023-01-26T01:28:26.759Z,28.40
2023-01-26T01:29:26.945Z,26.30
2023-01-26T01:30:27.094Z,30.20
2023-01-26T01:31:27.367Z,29.50
2023-01-26T01:32:27.466Z,24.00
2023-01-26T01:33:27.657Z,28.00
2023-01-26T01:34:27.885Z,22.10
2023-01-26T01:35:28.014Z,25.10
2023-01-26T01:36:28.213Z,22.20
2023-01-26T01:37:28.429Z,24.90
2023-01-26T01:38:28.550Z,21.90
2023-01-26T01:39:28.713Z,25.50
2023-01-26T01:40:28.895Z,27.80
2023-01-26T01:41:29.151Z,21.80
2023-01-26T01:42:29.273Z,24.60
2023-01-26T01:43:29.423Z,24.00
2023-01-26T01:44:29.647Z,25.90
2023-01-26T01:45:29.795Z,25.60
2023-01-26T01:46:30.004Z,27.10
2023-01-26T01:47:30.161Z,24.50
2023-01-26T01:48:30.293Z,25.20
2023-01-26T01:49:30.475Z,27.90
2023-01-26T01:50:30.686Z,31.40
2023-01-26T01:51:30.902Z,26.60
2023-01-26T01:52:31.013Z,25.70
2023-01-26T01:53:31.171Z,30.00
2023-01-26T01:54:31.389Z,23.70
2023-01-26T01:55:31.531Z,24.30
2023-01-26T01:56:31.717Z,28.10
2023-01-26T01:57:31.913Z,24.20
2023-01-26T01:58:32.063Z,23.80
2023-01-26T01:59:32.243Z,27.00
2023-01-26T02:00:32.465Z,23.10
2023-01-26T02:01:32.610Z,22.80
2023-01-26T02:02:32.801Z,20.50
2023-01-26T02:03:32.967Z,23.60
2023-01-26T02:04:33.136Z,24.90
2023-01-26T02:05:33.330Z,23.20
2023-01-26T02:06:33.513Z,22.80
2023-01-26T02:07:33.710Z,25.00
2023-01-26T02:08:33.853Z,23.70
2023-01-26T02:09:34.030Z,20.70
2023-01-26T02:10:34.228Z,21.00
2023-01-26T02:11:34.371Z,23.60
2023-01-26T02:12:34.564Z,22.00
2023-01-26T02:13:34.706Z,20.10
2023-01-26T02:14:34.887Z,21.90
2023-01-26T02:15:35.144Z,20.80
2023-01-26T02:16:35.249Z,23.00
2023-01-26T02:17:35.422Z,22.30
2023-01-26T02:18:35.588Z,20.80
2023-01-26T02:19:35.758Z,25.40
2023-01-26T02:20:35.901Z,20.60
2023-01-26T02:21:36.084Z,21.80
2023-01-26T02:22:36.258Z,20.50
2023-01-26T02:23:36.396Z,21.10
2023-01-26T02:24:36.566Z,21.40
2023-01-26T02:25:36.747Z,21.30
2023-01-26T02:26:36.930Z,18.30
2023-01-26T02:27:37.110Z,18.00
2023-01-26T02:28:37.277Z,19.40
2023-01-26T02:29:37.448Z,22.70
2023-01-26T02:30:37.650Z,20.80
2023-01-26T02:31:37.864Z,19.60
2023-01-26T02:32:37.976Z,20.50
2023-01-26T02:33:38.146Z,19.10
2023-01-26T02:34:38.380Z,19.80
2023-01-26T02:35:38.486Z,20.10
2023-01-26T02:36:38.668Z,20.60
2023-01-26T02:37:38.974Z,18.90
2023-01-26T02:38:39.405Z,21.30
2023-01-26T02:39:39.186Z,18.70
2023-01-26T02:40:39.428Z,23.10
2023-01-26T02:41:39.520Z,18.60
2023-01-26T02:42:39.760Z,21.20
2023-01-26T02:43:39.884Z,17.80
2023-01-26T02:44:40.025Z,20.20
2023-01-26T02:45:40.211Z,20.10
2023-01-26T02:46:40.419Z,18.30
2023-01-26T02:47:40.573Z,16.80
2023-01-26T02:48:40.705Z,15.50
2023-01-26T02:49:40.880Z,18.10
2023-01-26T02:50:41.129Z,15.60
2023-01-26T02:51:41.224Z,17.30
2023-01-26T02:52:41.444Z,16.40
2023-01-26T02:53:41.655Z,19.20
2023-01-26T02:54:41.749Z,17.60
2023-01-26T02:55:42.006Z,16.10
2023-01-26T02:56:42.091Z,19.00
2023-01-26T02:57:42.265Z,18.50
2023-01-26T02:58:42.431Z,15.50
2023-01-26T02:59:42.601Z,17.20
2023-01-26T03:00:42.837Z,17.40
2023-01-26T03:01:43.018Z,16.10
2023-01-26T03:02:43.151Z,15.20
2023-01-26T03:03:43.338Z,18.80
2023-01-26T03:04:43.514Z,16.20
2023-01-26T03:05:43.672Z,14.50
2023-01-26T03:06:43.856Z,11.80
2023-01-26T03:07:44.032Z,12.80
2023-01-26T03:08:44.192Z,12.30
2023-01-26T03:09:44.375Z,13.10
2023-01-26T03:10:44.583Z,12.30
2023-01-26T03:11:44.713Z,12.80
2023-01-26T03:12:44.908Z,13.90
2023-01-26T03:13:45.042Z,12.00
2023-01-26T03:14:45.250Z,10.70
2023-01-26T03:15:45.395Z,13.20
2023-01-26T03:16:45.551Z,11.50
2023-01-26T03:17:45.848Z,13.00
2023-01-26T03:18:45.898Z,12.50
2023-01-26T03:19:46.081Z,14.00
2023-01-26T03:20:46.250Z,11.70
2023-01-26T03:21:46.443Z,12.00
2023-01-26T03:22:46.689Z,13.00
2023-01-26T03:23:46.784Z,13.70
2023-01-26T03:24:46.960Z,14.70
2023-01-26T03:25:47.140Z,15.10
2023-01-26T03:26:47.313Z,15.40
2023-01-26T03:27:47.500Z,13.90
2023-01-26T03:28:47.660Z,14.50
2023-01-26T03:29:47.853Z,15.90
2023-01-26T03:30:48.149Z,12.90
2023-01-26T03:31:48.207Z,14.40
2023-01-26T03:32:48.390Z,11.50
2023-01-26T03:33:48.637Z,13.80
2023-01-26T03:34:48.744Z,13.10
2023-01-26T03:35:48.909Z,12.80
2023-01-26T03:36:49.138Z,12.70
2023-01-26T03:37:49.268Z,11.70
2023-01-26T03:38:49.447Z,10.40
2023-01-26T03:39:49.715Z,13.40
2023-01-26T03:40:49.798Z,13.20
2023-01-26T03:41:49.970Z,13.40
2023-01-26T03:42:50.139Z,11.80
2023-01-26T03:43:50.313Z,12.80
2023-01-26T03:44:50.487Z,14.20
2023-01-26T03:45:50.675Z,12.40
2023-01-26T03:46:50.891Z,10.60
2023-01-26T03:47:51.029Z,12.20
2023-01-26T03:48:51.215Z,16.40
2023-01-26T03:49:51.441Z,11.20
2023-01-26T03:50:51.568Z,13.70
2023-01-26T03:51:51.741Z,10.20
2023-01-26T03:52:51.970Z,14.40
2023-01-26T03:53:52.086Z,14.00
2023-01-26T03:54:52.285Z,13.90
2023-01-26T03:55:52.457Z,15.60
2023-01-26T03:56:52.578Z,14.30
2023-01-26T03:57:52.767Z,14.80
2023-01-26T03:58:52.963Z,15.00
2023-01-26T03:59:53.127Z,16.90
2023-01-26T04:00:53.342Z,17.10
2023-01-26T04:01:53.577Z,15.60
2023-01-26T04:02:53.647Z,13.90
2023-01-26T04:03:53.840Z,17.40
2023-01-26T04:04:54.020Z,16.80
2023-01-26T04:05:54.196Z,16.60
2023-01-26T04:06:54.344Z,16.00
2023-01-26T04:07:54.535Z,13.90
2023-01-26T04:08:54.674Z,13.20
2023-01-26T04:09:54.857Z,12.50
2023-01-26T04:10:55.075Z,14.20
2023-01-26T04:11:55.293Z,14.90
2023-01-26T04:12:55.407Z,15.10
2023-01-26T04:13:55.574Z,11.30
2023-01-26T04:14:55.828Z,13.90
2023-01-26T04:15:55.923Z,14.50
2023-01-26T04:16:56.094Z,12.90
2023-01-26T04:17:56.371Z,14.20
2023-01-26T04:18:56.456Z,13.40
2023-01-26T04:19:56.677Z,15.40
2023-01-26T04:20:56.793Z,12.40
2023-01-26T04:21:57.005Z,12.50
2023-01-26T04:22:57.164Z,12.90
2023-01-26T04:23:57.432Z,12.80
2023-01-26T04:24:57.481Z,15.00
2023-01-26T04:25:57.636Z,14.90
2023-01-26T04:26:57.846Z,15.40
2023-01-26T04:27:58.090Z,14.90
2023-01-26T04:28:58.169Z,15.20
2023-01-26T04:29:58.342Z,17.50
2023-01-26T04:30:58.629Z,16.30
2023-01-26T04:31:58.679Z,15.50
2023-01-26T04:32:58.861Z,14.20
2023-01-26T04:33:59.109Z,13.70
2023-01-26T04:34:59.220Z,13.70
2023-01-26T04:35:59.351Z,15.60
2023-01-26T04:36:59.513Z,15.50
2023-01-26T04:37:59.699Z,14.30
2023-01-26T04:38:59.862Z,11.70
2023-01-26T04:40:00.170Z,13.00
2023-01-26T04:41:00.213Z,16.40
2023-01-26T04:42:00.431Z,16.80
2023-01-26T04:43:00.613Z,11.60
2023-01-26T04:44:00.764Z,14.90
2023-01-26T04:45:00.933Z,15.10
2023-01-26T04:46:01.145Z,13.00
2023-01-26T04:47:01.270Z,14.50
2023-01-26T04:48:01.467Z,14.70
2023-01-26T04:49:01.600Z,15.10
2023-01-26T04:50:01.781Z,15.40
2023-01-26T04:51:01.970Z,14.90
2023-01-26T04:52:02.140Z,13.80
2023-01-26T04:53:02.460Z,15.00
2023-01-26T04:54:02.488Z,15.50
2023-01-26T04:55:02.685Z,16.00
2023-01-26T04:56:02.897Z,17.00
2023-01-26T04:57:03.012Z,14.60
2023-01-26T04:58:03.984Z,14.00
2023-01-26T04:59:03.365Z,14.10
2023-01-26T05:00:03.525Z,14.00
2023-01-26T05:01:03.716Z,12.10
2023-01-26T05:02:03.839Z,12.20
2023-01-26T05:03:03.999Z,16.60
2023-01-26T05:04:04.215Z,13.60
2023-01-26T05:05:04.375Z,13.30
2023-01-26T05:06:04.511Z,14.40
2023-01-26T05:07:04.693Z,13.30
2023-01-26T05:08:04.855Z,14.60
2023-01-26T05:09:05.036Z,13.00
2023-01-26T05:10:05.216Z,12.00
2023-01-26T05:11:05.391Z,14.70
2023-01-26T05:12:05.567Z,14.50
2023-01-26T05:13:05.725Z,17.50
2023-01-26T05:14:06.416Z,16.20
2023-01-26T05:15:06.090Z,14.60
2023-01-26T05:16:06.281Z,16.10
2023-01-26T05:17:06.466Z,16.00
2023-01-26T05:18:06.614Z,14.50
2023-01-26T05:19:06.907Z,17.80
2023-01-26T05:20:07.019Z,15.50
2023-01-26T05:21:07.115Z,18.90
2023-01-26T05:22:07.287Z,14.30
2023-01-26T05:23:07.510Z,17.70
2023-01-26T05:24:07.706Z,14.60
2023-01-26T05:25:07.769Z,17.20
2023-01-26T05:26:07.952Z,17.60
2023-01-26T05:27:08.112Z,15.20
2023-01-26T05:28:08.294Z,19.00
2023-01-26T05:29:08.573Z,17.90
2023-01-26T05:30:08.976Z,18.90
2023-01-26T05:31:08.818Z,17.30
2023-01-26T05:32:09.007Z,15.10
2023-01-26T05:33:09.123Z,18.00
2023-01-26T05:34:09.434Z,17.20
2023-01-26T05:35:09.465Z,16.10
2023-01-26T05:36:09.654Z,19.70
2023-01-26T05:37:09.887Z,20.50
2023-01-26T05:38:09.999Z,17.10
2023-01-26T05:39:10.175Z,17.70
2023-01-26T05:40:10.852Z,17.50
2023-01-26T05:41:10.530Z,15.80
2023-01-26T05:42:10.719Z,17.30
2023-01-26T05:43:10.953Z,17.90
2023-01-26T05:44:11.062Z,15.50
2023-01-26T05:45:11.232Z,15.40
2023-01-26T05:46:11.486Z,17.60
2023-01-26T05:47:11.598Z,17.70
2023-01-26T05:48:11.777Z,15.80
2023-01-26T05:49:12.004Z,14.40
2023-01-26T05:50:12.471Z,16.00
2023-01-26T05:51:12.302Z,20.90
2023-01-26T05:52:12.492Z,17.80
2023-01-26T05:53:12.660Z,17.40
2023-01-26T05:54:12.864Z,15.10
2023-01-26T05:55:13.043Z,15.80
2023-01-26T05:56:13.199Z,17.80
2023-01-26T05:57:13.369Z,15.90
2023-01-26T05:58:13.547Z,12.80
2023-01-26T05:59:13.720Z,16.10
2023-01-26T06:00:14.097Z,14.90
2023-01-26T06:01:14.071Z,17.70
2023-01-26T06:02:14.312Z,16.70
2023-01-26T06:03:14.449Z,17.00
2023-01-26T06:04:14.665Z,18.70
2023-01-26T06:05:14.789Z,15.70
2023-01-26T06:06:14.970Z,14.80
2023-01-26T06:07:15.145Z,15.60
2023-01-26T06:08:15.321Z,13.90
2023-01-26T06:09:15.509Z,17.30
2023-01-26T06:10:15.681Z,15.60
2023-01-26T06:11:15.834Z,16.50
2023-01-26T06:12:16.006Z,14.70
2023-01-26T06:13:16.267Z,15.00
2023-01-26T06:14:16.377Z,13.80
2023-01-26T06:15:16.568Z,13.40
2023-01-26T06:16:16.814Z,13.70
2023-01-26T06:17:16.903Z,14.60
2023-01-26T06:18:17.077Z,15.10
2023-01-26T06:19:17.343Z,15.20
2023-01-26T06:20:17.446Z,14.90
2023-01-26T06:21:17.629Z,14.90
2023-01-26T06:22:17.848Z,12.50
2023-01-26T06:23:17.954Z,13.90
2023-01-26T06:24:18.181Z,11.70
2023-01-26T06:25:18.329Z,14.50
2023-01-26T06:26:18.454Z,12.30
2023-01-26T06:27:18.659Z,13.10
2023-01-26T06:28:18.806Z,14.10
2023-01-26T06:29:19.003Z,14.90
2023-01-26T06:30:19.168Z,10.50
2023-01-26T06:31:19.465Z,12.60
2023-01-26T06:32:19.507Z,9.20
2023-01-26T06:33:19.679Z,12.80
2023-01-26T06:34:19.882Z,13.80
2023-01-26T06:35:20.080Z,11.50
2023-01-26T06:36:20.208Z,11.90
2023-01-26T06:37:20.380Z,8.70
2023-01-26T06:38:20.614Z,12.50
2023-01-26T06:39:20.740Z,12.50
2023-01-26T06:40:20.910Z,14.10
2023-01-26T06:41:21.105Z,11.70
2023-01-26T06:42:21.245Z,10.60
2023-01-26T06:43:21.427Z,13.90
2023-01-26T06:44:21.630Z,10.60
2023-01-26T06:45:21.765Z,10.70
2023-01-26T06:46:22.029Z,10.50
2023-01-26T06:47:22.147Z,11.50
2023-01-26T06:48:22.302Z,9.50
2023-01-26T06:49:22.499Z,11.50
2023-01-26T06:50:22.641Z,8.00
2023-01-26T06:51:22.847Z,9.90
2023-01-26T06:52:23.004Z,12.00
2023-01-26T06:53:23.212Z,10.30
2023-01-26T06:54:23.385Z,10.60
2023-01-26T06:55:23.562Z,11.10
2023-01-26T06:56:23.712Z,8.30
2023-01-26T06:57:23.896Z,10.90
2023-01-26T06:58:24.117Z,9.40
2023-01-26T06:59:24.256Z,11.70
2023-01-26T07:00:24.433Z,13.00
2023-01-26T07:01:24.641Z,11.10
2023-01-26T07:02:24.850Z,10.40
2023-01-26T07:03:24.967Z,10.20
2023-01-26T07:04:25.131Z,10.30
2023-01-26T07:05:25.291Z,11.20
2023-01-26T07:06:25.457Z,8.40
2023-01-26T07:07:25.630Z,7.50
2023-01-26T07:08:25.780Z,7.70
2023-01-26T07:09:25.978Z,8.70
2023-01-26T07:10:26.120Z,7.10
2023-01-26T07:11:26.390Z,9.40
2023-01-26T07:12:26.480Z,11.50
2023-01-26T07:13:26.679Z,9.50
2023-01-26T07:14:26.885Z,9.30
2023-01-26T07:15:27.041Z,10.20
2023-01-26T07:16:27.285Z,11.40
2023-01-26T07:17:27.393Z,10.30
2023-01-26T07:18:27.548Z,8.70
2023-01-26T07:19:27.740Z,9.90
2023-01-26T07:20:27.908Z,8.60
2023-01-26T07:21:28.155Z,9.00
2023-01-26T07:22:28.220Z,11.30
2023-01-26T07:23:28.408Z,11.50
2023-01-26T07:24:28.585Z,8.80
2023-01-26T07:25:28.722Z,9.20
2023-01-26T07:26:28.896Z,10.20
2023-01-26T07:27:29.078Z,9.00
2023-01-26T07:28:29.259Z,10.00
2023-01-26T07:29:29.476Z,12.30
2023-01-26T07:30:29.645Z,9.80
2023-01-26T07:31:29.840Z,9.00
2023-01-26T07:32:29.971Z,10.90
2023-01-26T07:33:30.156Z,8.30
2023-01-26T07:34:30.337Z,10.20
2023-01-26T07:35:30.601Z,11.50
2023-01-26T07:36:30.665Z,11.10
2023-01-26T07:37:30.867Z,21.10
2023-01-26T07:38:31.039Z,8.90
2023-01-26T07:39:31.224Z,10.50
2023-01-26T07:40:31.383Z,9.10
2023-01-26T07:41:31.529Z,9.80
2023-01-26T07:42:31.724Z,11.80
2023-01-26T07:43:31.912Z,10.10
2023-01-26T07:44:32.085Z,8.80
2023-01-26T07:45:32.295Z,7.40
2023-01-26T07:46:32.482Z,11.10
2023-01-26T07:47:32.607Z,10.30
2023-01-26T07:48:32.764Z,9.00
2023-01-26T07:49:32.974Z,8.20
2023-01-26T07:50:33.206Z,7.60
2023-01-26T07:51:33.344Z,9.90
2023-01-26T07:52:33.475Z,7.90
2023-01-26T07:53:33.674Z,8.00
2023-01-26T07:54:33.836Z,6.70
2023-01-26T07:55:34.014Z,7.70
2023-01-26T07:56:34.171Z,10.50
2023-01-26T07:57:34.373Z,9.60
2023-01-26T07:58:34.585Z,7.80
2023-01-26T07:59:34.741Z,8.20
2023-01-26T08:00:34.863Z,8.50
2023-01-26T08:01:35.063Z,9.00
2023-01-26T08:02:35.309Z,9.30
2023-01-26T08:03:35.417Z,8.30
2023-01-26T08:04:35.614Z,9.40
2023-01-26T08:05:35.829Z,7.40
2023-01-26T08:06:35.964Z,9.40
2023-01-26T08:07:36.097Z,10.00
2023-01-26T08:08:36.312Z,6.80
2023-01-26T08:09:36.497Z,8.60
2023-01-26T08:10:36.622Z,7.00
2023-01-26T08:11:36.826Z,7.70
2023-01-26T08:12:40.147Z,10.10
2023-01-26T08:13:37.194Z,7.30
2023-01-26T08:14:46.492Z,8.90
2023-01-26T08:15:38.530Z,8.20
2023-01-26T08:16:37.752Z,6.10
2023-01-26T08:17:37.843Z,9.50
2023-01-26T08:18:38.052Z,7.20
2023-01-26T08:19:38.170Z,7.70
2023-01-26T08:20:38.356Z,8.40
2023-01-26T08:21:38.524Z,6.10
2023-01-26T08:22:38.632Z,7.60
2023-01-26T08:23:38.834Z,6.60
2023-01-26T08:24:39.032Z,7.40
2023-01-26T08:25:39.280Z,7.60
2023-01-26T08:26:39.378Z,8.60
2023-01-26T08:27:39.550Z,7.60
2023-01-26T08:28:39.730Z,7.50
2023-01-26T08:29:39.955Z,6.80
2023-01-26T08:30:40.120Z,9.20
2023-01-26T08:31:40.288Z,6.30
2023-01-26T08:32:40.477Z,6.20
2023-01-26T08:33:40.658Z,6.00
2023-01-26T08:34:40.855Z,7.80
2023-01-26T08:35:41.008Z,6.30
2023-01-26T08:36:41.178Z,6.60
2023-01-26T08:37:41.388Z,5.60
2023-01-26T08:38:41.553Z,7.20
2023-01-26T08:39:41.756Z,8.20
2023-01-26T08:40:41.909Z,8.50
2023-01-26T08:41:42.097Z,5.60
2023-01-26T08:42:42.264Z,8.00
2023-01-26T08:43:42.466Z,7.70
2023-01-26T08:44:42.606Z,7.50
2023-01-26T08:45:42.827Z,5.50
2023-01-26T08:46:42.957Z,8.30
2023-01-26T08:47:43.148Z,6.60
2023-01-26T08:48:43.335Z,7.30
2023-01-26T08:49:43.507Z,6.90
2023-01-26T08:50:43.647Z,7.70
2023-01-26T08:51:43.833Z,7.80
2023-01-26T08:52:44.024Z,5.70
2023-01-26T08:53:44.223Z,5.20
2023-01-26T08:54:44.464Z,7.40
2023-01-26T08:55:44.546Z,7.60
2023-01-26T08:56:44.703Z,9.50
2023-01-26T08:57:44.875Z,7.40
2023-01-26T08:58:45.063Z,5.90
2023-01-26T08:59:45.264Z,7.40
2023-01-26T09:00:45.420Z,5.90
2023-01-26T09:01:45.607Z,5.50
2023-01-26T09:02:45.931Z,8.50
2023-01-26T09:03:45.913Z,7.60
2023-01-26T09:04:46.104Z,8.60
2023-01-26T09:05:46.284Z,7.80
2023-01-26T09:06:46.425Z,12.90
2023-01-26T09:07:46.640Z,7.60
2023-01-26T09:08:46.795Z,8.00
2023-01-26T09:09:46.965Z,8.40
2023-01-26T09:10:47.140Z,7.40
2023-01-26T09:11:47.314Z,7.70
2023-01-26T09:12:47.507Z,9.80
2023-01-26T09:13:47.666Z,7.40
2023-01-26T09:14:47.821Z,8.90
2023-01-26T09:15:48.088Z,9.40
2023-01-26T09:16:48.195Z,9.60
2023-01-26T09:17:48.338Z,9.10
2023-01-26T09:18:48.531Z,9.40
2023-01-26T09:19:48.755Z,6.50
2023-01-26T09:20:48.880Z,7.70
2023-01-26T09:21:49.058Z,7.00
2023-01-26T09:22:49.193Z,7.80
2023-01-26T09:23:49.479Z,9.00
2023-01-26T09:24:49.601Z,8.50
2023-01-26T09:25:49.711Z,8.40
2023-01-26T09:26:49.851Z,7.80
2023-01-26T09:27:50.060Z,8.70
2023-01-26T09:28:50.201Z,10.20
2023-01-26T09:29:50.453Z,9.50
2023-01-26T09:30:50.631Z,11.00
2023-01-26T09:31:50.860Z,10.00
2023-01-26T09:32:50.949Z,9.60
2023-01-26T09:33:51.113Z,8.70
2023-01-26T09:34:51.338Z,10.20
2023-01-26T09:35:51.507Z,8.10
2023-01-26T09:36:51.637Z,10.90
2023-01-26T09:37:51.847Z,8.10
2023-01-26T09:38:52.000Z,11.60
2023-01-26T09:39:52.180Z,11.40
2023-01-26T09:40:52.378Z,8.30
2023-01-26T09:41:52.562Z,8.70
2023-01-26T09:42:52.712Z,8.80
2023-01-26T09:43:52.896Z,7.70
2023-01-26T09:44:53.083Z,8.50
2023-01-26T09:45:53.262Z,10.60
2023-01-26T09:46:53.391Z,8.80
2023-01-26T09:47:53.562Z,8.80
2023-01-26T09:48:53.719Z,7.10
2023-01-26T09:49:56.439Z,10.50
2023-01-26T09:50:54.063Z,7.70
2023-01-26T09:51:54.211Z,7.70
2023-01-26T09:52:54.369Z,8.50
2023-01-26T09:53:54.542Z,8.70
2023-01-26T09:54:54.719Z,8.10
2023-01-26T09:55:54.889Z,7.20
2023-01-26T09:56:55.048Z,9.70
2023-01-26T09:57:55.230Z,9.70
2023-01-26T09:58:55.395Z,8.10
2023-01-26T09:59:55.596Z,7.40
2023-01-26T10:00:55.765Z,7.80
2023-01-26T10:01:55.926Z,8.00
2023-01-26T10:02:56.149Z,7.20
2023-01-26T10:03:56.485Z,8.00
2023-01-26T10:04:56.451Z,7.80
2023-01-26T10:05:56.590Z,7.20
2023-01-26T10:06:56.764Z,10.80
2023-01-26T10:07:56.966Z,6.70
2023-01-26T10:08:57.096Z,6.60
2023-01-26T10:09:57.284Z,6.20
2023-01-26T10:10:57.491Z,6.50
2023-01-26T10:11:57.626Z,6.60
2023-01-26T10:12:57.829Z,7.30
2023-01-26T10:13:57.966Z,5.40
2023-01-26T10:14:58.194Z,6.30
2023-01-26T10:15:58.375Z,6.20
2023-01-26T10:16:58.522Z,6.20
2023-01-26T10:17:58.708Z,7.20
2023-01-26T10:18:58.885Z,7.30
2023-01-26T10:19:59.088Z,6.00
2023-01-26T10:20:59.234Z,6.60
2023-01-26T10:21:59.426Z,7.70
2023-01-26T10:22:59.620Z,6.10
2023-01-26T10:23:59.808Z,8.30
2023-01-26T10:24:59.995Z,13.20
2023-01-26T10:26:00.153Z,13.50
2023-01-26T10:27:00.341Z,11.10
2023-01-26T10:28:00.473Z,10.70
2023-01-26T10:29:00.711Z,6.50
2023-01-26T10:30:00.912Z,5.90
2023-01-26T10:31:01.139Z,5.30
2023-01-26T10:32:01.214Z,4.90
2023-01-26T10:33:01.428Z,5.40
2023-01-26T10:34:01.552Z,5.60
2023-01-26T10:35:01.789Z,6.40
2023-01-26T10:36:01.932Z,3.70
2023-01-26T10:37:02.112Z,4.20
2023-01-26T10:38:02.292Z,3.60
2023-01-26T10:39:02.495Z,4.40
2023-01-26T10:40:02.671Z,3.70
2023-01-26T10:41:02.851Z,3.10
2023-01-26T10:42:03.055Z,3.00
2023-01-26T10:43:03.219Z,4.90
2023-01-26T10:44:03.390Z,3.90
2023-01-26T10:45:03.569Z,4.80
2023-01-26T10:46:03.884Z,5.70
2023-01-26T10:47:03.930Z,7.50
2023-01-26T10:48:04.130Z,6.10
2023-01-26T10:49:04.415Z,6.10
2023-01-26T10:50:04.442Z,5.10
2023-01-26T10:51:04.582Z,4.40
2023-01-26T10:52:04.744Z,7.30
2023-01-26T10:53:04.940Z,4.80
2023-01-26T10:54:05.098Z,5.50
2023-01-26T10:55:05.336Z,5.80
2023-01-26T10:56:05.467Z,4.20
2023-01-26T10:57:05.636Z,5.40
2023-01-26T10:58:05.808Z,3.60
2023-01-26T10:59:06.009Z,3.80
2023-01-26T11:00:06.189Z,3.00
2023-01-26T11:01:06.377Z,3.60
2023-01-26T11:02:06.512Z,3.30
2023-01-26T11:03:06.709Z,3.50
2023-01-26T11:04:06.874Z,3.90
2023-01-26T11:05:07.069Z,4.60
2023-01-26T11:06:07.225Z,3.60
2023-01-26T11:07:07.408Z,4.30
2023-01-26T11:08:07.618Z,4.20
2023-01-26T11:09:07.752Z,3.90
2023-01-26T11:10:07.968Z,4.70
2023-01-26T11:11:08.135Z,3.30
2023-01-26T11:12:08.319Z,4.80
2023-01-26T11:13:08.506Z,4.00
2023-01-26T11:14:08.696Z,4.00
2023-01-26T11:15:08.962Z,3.40
2023-01-26T11:16:09.093Z,3.90
2023-01-26T11:17:09.216Z,3.60
2023-01-26T11:18:09.420Z,3.10
2023-01-26T11:19:09.596Z,4.00
2023-01-26T11:20:09.781Z,3.20
2023-01-26T11:21:10.043Z,3.50
2023-01-26T11:22:10.098Z,3.70
2023-01-26T11:23:10.291Z,2.40
2023-01-26T11:24:10.527Z,5.50
2023-01-26T11:25:10.930Z,4.00
2023-01-26T11:26:10.808Z,3.60
2023-01-26T11:27:10.985Z,3.70
2023-01-26T11:28:11.171Z,3.70
2023-01-26T11:29:11.347Z,2.70
2023-01-26T11:30:11.548Z,3.60
2023-01-26T11:31:11.748Z,4.40
2023-01-26T11:32:11.907Z,3.60
2023-01-26T11:33:12.047Z,3.20
2023-01-26T11:34:12.223Z,3.60
2023-01-26T11:35:12.787Z,4.30
2023-01-26T11:36:12.602Z,3.70
2023-01-26T11:37:12.776Z,4.20
2023-01-26T11:38:12.951Z,3.10
2023-01-26T11:39:13.143Z,2.60
2023-01-26T11:40:13.327Z,3.60
2023-01-26T11:41:13.499Z,3.30
2023-01-26T11:42:13.671Z,3.40
2023-01-26T11:43:13.840Z,2.70
2023-01-26T11:44:13.998Z,3.40
2023-01-26T11:45:14.270Z,3.10
2023-01-26T11:46:14.354Z,3.40
2023-01-26T11:47:14.541Z,4.00
2023-01-26T11:48:14.713Z,3.90
2023-01-26T11:49:14.893Z,4.10
2023-01-26T11:50:15.094Z,4.50
2023-01-26T11:51:15.234Z,3.20
2023-01-26T11:52:15.413Z,4.70
2023-01-26T11:53:15.684Z,4.40
2023-01-26T11:54:15.752Z,4.40
2023-01-26T11:55:15.940Z,4.70
2023-01-26T11:56:16.107Z,5.40
2023-01-26T11:57:16.297Z,4.00
2023-01-26T11:58:16.468Z,4.40
2023-01-26T11:59:16.647Z,4.40
2023-01-26T12:00:29.093Z,4.00
2023-01-26T12:01:18.000Z,3.70
2023-01-26T12:02:17.175Z,3.60
2023-01-26T12:03:17.363Z,3.90
2023-01-26T12:04:17.517Z,3.60
2023-01-26T12:05:17.690Z,3.30
2023-01-26T12:06:17.853Z,3.90
2023-01-26T12:07:18.051Z,3.50
2023-01-26T12:08:18.180Z,3.30
2023-01-26T12:09:18.372Z,5.00
2023-01-26T12:10:18.561Z,5.10
2023-01-26T12:11:18.731Z,4.50
2023-01-26T12:12:18.911Z,5.00
2023-01-26T12:13:19.088Z,5.00
2023-01-26T12:14:19.260Z,4.20
2023-01-26T12:15:19.462Z,4.70
2023-01-26T12:16:19.716Z,4.60
2023-01-26T12:17:19.794Z,4.00
2023-01-26T12:18:19.919Z,4.90
2023-01-26T12:19:20.120Z,3.60
2023-01-26T12:20:21.371Z,2.60
2023-01-26T12:21:20.490Z,3.80
2023-01-26T12:22:20.681Z,5.00
2023-01-26T12:23:20.818Z,5.30
2023-01-26T12:24:48.443Z,4.60
2023-01-26T12:25:22.198Z,4.70
2023-01-26T12:26:21.360Z,3.20
2023-01-26T12:27:21.555Z,3.80
2023-01-26T12:28:21.728Z,4.60
2023-01-26T12:29:21.909Z,3.50
2023-01-26T12:30:22.116Z,3.80
2023-01-26T12:31:22.352Z,4.60
2023-01-26T12:32:22.435Z,4.50
2023-01-26T12:33:22.676Z,4.00
2023-01-26T12:34:22.743Z,7.30
2023-01-26T12:35:23.006Z,4.30
2023-01-26T12:36:23.106Z,4.00
2023-01-26T12:37:23.269Z,4.60
2023-01-26T12:38:23.449Z,3.90
2023-01-26T12:39:23.659Z,2.60
2023-01-26T12:40:23.835Z,4.30
2023-01-26T12:41:24.108Z,4.40
2023-01-26T12:42:24.196Z,4.80
2023-01-26T12:43:24.388Z,4.60
2023-01-26T12:44:24.562Z,5.10
2023-01-26T12:45:24.747Z,3.50
2023-01-26T12:46:24.993Z,4.00
2023-01-26T12:47:25.080Z,4.70
2023-01-26T12:48:25.277Z,4.60
2023-01-26T12:49:25.478Z,4.00
2023-01-26T12:50:25.659Z,5.50
2023-01-26T12:51:25.806Z,6.20
2023-01-26T12:52:26.003Z,4.90
2023-01-26T12:53:26.134Z,6.80
2023-01-26T12:54:26.330Z,5.50
2023-01-26T12:55:26.516Z,6.60
2023-01-26T12:56:26.644Z,6.00
2023-01-26T12:57:26.810Z,5.80
2023-01-26T12:58:26.986Z,6.80
2023-01-26T12:59:46.561Z,5.50
2023-01-26T13:00:28.343Z,5.20
2023-01-26T13:01:27.537Z,4.80
2023-01-26T13:02:27.712Z,6.30
2023-01-26T13:03:27.890Z,6.10
2023-01-26T13:04:28.035Z,6.30
2023-01-26T13:05:28.256Z,6.10